Für Piloten

Informationen für Piloten zum Flugplatz Borken-Hoxfeld
Hier findest Du alle relevanten Informationen, die Du als Pilot benötigst, um Borken-Hoxfeld anzufliegen.

Flugplatz: Borken-Hoxfeld ICAO-Code: EDLY
Borken-Hoxfeld Info: 122,930 Mhz
GAFOR Gebiet: 32
Platzrunde: Motorflug; -> Südplatzrunde; Segelflug; -> Nordplatzrunde;
Landegebühr: z.Zt. 5,00 Euro
Platzhöhe: 48m üMSL
Pisten: 12/30 – 740 m x 30 m, GRAS
Betriebszeiten: PPR (in den Sommermonaten Mittagspause beachten)

 

Wetterforecast:

Available data for EDDL from the past 2 hours
DUESSELDORF
Metar
EDDL 130450Z 04002KT CAVOK 12/10 Q1027 NOSIG

04:50 UTC

Wind: 40° 2kt

Visibility:

Sky:

Temp: 12 deg C / 53.6 deg F

Dewpoint: 10 deg C / 50 deg F

Pressure: 1027 hPa

TAF
TAF EDDL 122300Z 1300/1406 34005KT CAVOK TEMPO 1301/1307 VRB02KT BECMG 1317/1320 04005KT BECMG 1400/1403 14005KT

Alle obigen Informationen ersetzen nicht die vorgeschriebene, persönliche Flugvorbereitung.